Sylvan Lake, Canada
Current Conditions -  °F | °C
As of 12:00 AM on Wednesday 22 Oct 2014 (Local Time) from CYQF Reporting Station
Clear Clear  
Wind Chill: 34°   Ceiling: Unl
Heat Index: 34°   Visibility: 15mi
Dew Point: 34°   Wind: 2mph
Humidity: 100%   Direction: NA
Pressure: 29.73"   Gusts: NA
Location:  52.31°N, 114.09°W
Report Text: CYQF 220600Z VRB02KT 15SM SKC 01/01 A2973 RMK SLP093
Loading
Personal Weather Stations






























Interactive Weather Map
Tropical Storm Tracking
New forecast layout! Learn more

10-Day Weather Forecast

Advertisements
Track Severe Weather on mobile